Time;durP1;ratioP1;P1;durP2;ratioP2;P2;SDS_P1;SDS_P2;PMS_P1;PMS_P2;Temp;Humidity;BMP_temperature;BMP_pressure;BME280_temperature;BME280_humidity;BME280_pressure;Samples;Min_cycle;Max_cycle;Signal;HPM_P1;HPM_P2
2021/03/12 00:01:35;;;;;;;3.00;1.10;;;7.20;93.20;;;;;;4990863;28;20061;-61
2021/03/12 00:04:08;;;;;;;1.35;0.32;;;7.10;94.70;;;;;;4991089;28;20058;-60
2021/03/12 00:06:42;;;;;;;2.50;0.52;;;6.90;95.60;;;;;;4988510;28;20222;-60
2021/03/12 00:09:09;;;;;;;1.42;0.25;;;6.70;96.90;;;;;;4987348;28;20057;-61
2021/03/12 00:11:36;;;;;;;7.07;0.70;;;5.60;95.30;;;;;;4988648;28;20076;-62
2021/03/12 00:14:07;;;;;;;3.03;0.40;;;4.40;96.90;;;;;;4990339;28;20237;-62
2021/03/12 00:16:34;;;;;;;0.63;0.30;;;3.80;98.50;;;;;;4989165;28;20228;-63
2021/03/12 00:19:00;;;;;;;0.82;0.30;;;3.80;99.10;;;;;;4992190;28;20057;-63
2021/03/12 00:21:32;;;;;;;2.75;0.38;;;3.90;99.30;;;;;;4989460;28;20055;-62
2021/03/12 00:23:59;;;;;;;1.27;0.25;;;4.10;99.50;;;;;;4990239;28;20122;-63
2021/03/12 00:26:26;;;;;;;0.82;0.10;;;4.20;99.60;;;;;;4988579;28;20054;-63
2021/03/12 00:28:54;;;;;;;2.50;0.35;;;4.30;99.60;;;;;;4988219;28;20276;-63
2021/03/12 00:31:21;;;;;;;3.33;0.28;;;4.40;99.70;;;;;;4990073;28;20125;-63
2021/03/12 00:33:48;;;;;;;5.82;0.47;;;4.40;99.70;;;;;;4990326;28;20065;-62
2021/03/12 00:36:15;;;;;;;1.05;0.45;;;4.40;99.70;;;;;;4987806;28;20600;-64
2021/03/12 00:38:42;;;;;;;2.30;0.17;;;4.30;99.60;;;;;;4988422;28;20051;-64
2021/03/12 00:41:09;;;;;;;0.50;0.20;;;4.30;99.70;;;;;;4988787;28;20520;-62
2021/03/12 00:43:47;;;;;;;1.48;0.10;;;4.30;99.60;;;;;;4992929;28;20317;-62
2021/03/12 00:46:26;;;;;;;4.05;0.30;;;4.20;99.60;;;;;;4986922;28;20539;-62
2021/03/12 00:48:53;;;;;;;0.63;0.00;;;4.20;99.60;;;;;;4986146;28;20064;-62
2021/03/12 00:51:23;;;;;;;0.55;0.10;;;4.20;99.60;;;;;;4991337;28;20054;-62
2021/03/12 00:54:16;;;;;;;0.00;0.00;;;4.20;99.60;;;;;;4986887;28;20571;-63
2021/03/12 00:56:49;;;;;;;0.05;0.05;;;4.20;99.70;;;;;;4990585;28;20065;-63
2021/03/12 00:59:30;;;;;;;1.38;0.85;;;4.20;99.70;;;;;;4988176;28;20672;-62
2021/03/12 01:01:59;;;;;;;0.55;0.22;;;4.30;99.80;;;;;;4988284;28;20104;-63
2021/03/12 01:04:26;;;;;;;0.00;0.00;;;4.40;99.80;;;;;;4989429;28;20050;-62
2021/03/12 01:07:04;;;;;;;0.63;0.10;;;4.40;99.80;;;;;;4989457;28;20253;-62
2021/03/12 01:09:32;;;;;;;0.55;0.20;;;4.50;99.80;;;;;;4989096;28;20113;-62
2021/03/12 01:11:59;;;;;;;0.10;0.10;;;4.50;99.80;;;;;;4986647;28;20050;-62
2021/03/12 01:14:27;;;;;;;0.10;0.10;;;4.60;99.70;;;;;;4990019;28;20050;-62
2021/03/12 01:16:55;;;;;;;0.35;0.08;;;4.60;99.60;;;;;;4989932;28;20081;-62
2021/03/12 01:19:32;;;;;;;0.08;0.05;;;4.60;99.50;;;;;;4984670;28;20060;-62
2021/03/12 01:22:03;;;;;;;0.90;0.10;;;4.60;99.50;;;;;;4989140;28;20077;-62
2021/03/12 01:24:32;;;;;;;0.30;0.00;;;4.50;99.30;;;;;;4991730;28;20338;-62
2021/03/12 01:27:04;;;;;;;0.05;0.05;;;4.50;99.10;;;;;;4984384;28;20586;-62
2021/03/12 01:29:32;;;;;;;0.10;0.05;;;4.40;99.10;;;;;;4987139;28;20057;-61
2021/03/12 01:32:07;;;;;;;0.45;0.10;;;4.30;98.90;;;;;;4985250;28;20661;-62
2021/03/12 01:34:40;;;;;;;0.63;0.13;;;4.30;99.10;;;;;;4988238;28;20156;-62
2021/03/12 01:37:08;;;;;;;0.35;0.10;;;4.30;98.90;;;;;;4990805;28;20281;-62
2021/03/12 01:39:47;;;;;;;1.63;0.20;;;4.30;98.90;;;;;;4985955;28;20043;-61
2021/03/12 01:42:14;;;;;;;0.43;0.30;;;4.40;98.80;;;;;;4988314;28;20096;-61
2021/03/12 01:44:42;;;;;;;0.50;0.20;;;4.40;98.70;;;;;;4987827;28;20108;-61
2021/03/12 01:47:09;;;;;;;0.85;0.50;;;4.50;98.90;;;;;;4983034;28;20038;-61
2021/03/12 01:49:37;;;;;;;1.30;0.30;;;4.50;98.90;;;;;;4968829;28;20063;-61
2021/03/12 01:52:06;;;;;;;0.20;0.20;;;4.60;98.90;;;;;;4966865;28;20061;-61
2021/03/12 01:54:35;;;;;;;2.80;0.73;;;4.60;98.80;;;;;;4974426;28;20065;-61
2021/03/12 01:57:07;;;;;;;0.52;0.17;;;4.60;99.10;;;;;;4995023;28;20126;-61
2021/03/12 02:00:00;;;;;;;0.10;0.10;;;4.60;99.10;;;;;;5003247;28;20058;-61
2021/03/12 02:02:43;;;;;;;0.63;0.20;;;4.60;99.10;;;;;;4988194;28;20359;-62
2021/03/12 02:05:34;;;;;;;0.13;0.10;;;4.70;99.20;;;;;;4987528;28;20350;-62
2021/03/12 02:08:06;;;;;;;0.10;0.10;;;4.70;99.20;;;;;;4987222;28;20057;-62
2021/03/12 02:10:39;;;;;;;0.20;0.15;;;4.70;99.30;;;;;;4987452;28;20421;-61
2021/03/12 02:13:13;;;;;;;1.52;0.75;;;4.70;99.30;;;;;;4991445;28;20207;-62
2021/03/12 02:15:49;;;;;;;0.60;0.30;;;4.70;99.30;;;;;;4987734;28;20055;-62
2021/03/12 02:18:20;;;;;;;0.20;0.20;;;4.80;99.40;;;;;;5005770;28;20461;-61
2021/03/12 02:20:57;;;;;;;0.43;0.20;;;4.80;99.30;;;;;;4970670;28;20063;-61
2021/03/12 02:23:48;;;;;;;2.30;0.50;;;4.80;99.30;;;;;;4979792;28;20322;-62
2021/03/12 02:26:18;;;;;;;;;;;4.90;99.20;;;;;;4993505;28;20541;-61
2021/03/12 02:28:49;;;;;;;0.75;0.55;;;4.80;99.10;;;;;;4996215;28;20160;-60
2021/03/12 02:31:17;;;;;;;1.25;0.70;;;4.80;99.20;;;;;;4994447;28;20925;-61
2021/03/12 02:33:46;;;;;;;2.17;0.70;;;4.80;99.30;;;;;;5000101;28;20077;-61
2021/03/12 02:36:20;;;;;;;0.50;0.20;;;4.90;99.40;;;;;;4998738;28;20386;-61
2021/03/12 02:39:00;;;;;;;0.67;0.30;;;4.80;99.30;;;;;;4998178;28;20325;-60
2021/03/12 02:41:30;;;;;;;1.10;0.30;;;5.00;99.30;;;;;;4997863;28;20109;-61
2021/03/12 02:44:07;;;;;;;3.58;0.50;;;5.00;99.40;;;;;;4997353;28;20046;-60
2021/03/12 02:46:47;;;;;;;1.17;0.45;;;5.00;99.40;;;;;;4992918;28;20133;-61
2021/03/12 02:49:15;;;;;;;3.60;0.70;;;5.00;98.90;;;;;;4990501;28;20316;-60
2021/03/12 02:51:43;;;;;;;2.58;0.38;;;5.10;98.50;;;;;;4996298;28;20098;-61
2021/03/12 02:54:12;;;;;;;1.42;0.57;;;5.00;98.00;;;;;;4993624;28;20649;-61
2021/03/12 02:56:50;;;;;;;2.45;0.47;;;5.10;97.60;;;;;;4998705;28;20357;-61
2021/03/12 02:59:19;;;;;;;0.85;0.30;;;4.90;98.10;;;;;;4993071;28;20093;-61
2021/03/12 03:02:04;;;;;;;2.67;1.67;;;4.90;98.30;;;;;;4996620;28;20054;-60
2021/03/12 03:04:47;;;;;;;1.88;0.52;;;4.70;98.30;;;;;;4996969;28;20109;-61
2021/03/12 03:07:27;;;;;;;0.40;0.40;;;4.70;98.20;;;;;;4992060;28;20369;-61
2021/03/12 03:09:56;;;;;;;1.67;0.45;;;4.60;98.10;;;;;;4992304;28;20050;-61
2021/03/12 03:12:26;;;;;;;1.23;0.32;;;4.50;98.00;;;;;;4989965;28;20320;-61
2021/03/12 03:15:00;;;;;;;1.10;0.35;;;4.40;97.90;;;;;;4989441;28;20058;-61
2021/03/12 03:17:35;;;;;;;1.50;0.40;;;4.40;97.80;;;;;;4994486;28;20054;-61
2021/03/12 03:20:06;;;;;;;2.25;0.40;;;4.40;96.90;;;;;;4996843;28;20054;-61
2021/03/12 03:22:33;;;;;;;0.35;0.32;;;4.30;97.20;;;;;;4993966;28;20058;-60
2021/03/12 03:25:02;;;;;;;0.93;0.47;;;4.20;97.50;;;;;;4994525;28;20312;-61
2021/03/12 03:27:29;;;;;;;2.50;0.25;;;4.20;97.00;;;;;;4990833;28;20124;-60
2021/03/12 03:29:58;;;;;;;1.50;0.20;;;4.10;97.00;;;;;;4991427;28;20054;-60
2021/03/12 03:32:25;;;;;;;7.10;0.52;;;4.10;96.90;;;;;;4990837;28;20179;-61
2021/03/12 03:34:52;;;;;;;1.70;0.40;;;4.00;97.00;;;;;;4996524;28;20054;-61
2021/03/12 03:37:19;;;;;;;0.85;0.20;;;3.80;97.60;;;;;;5001171;28;20038;-61
2021/03/12 03:39:46;;;;;;;4.15;1.05;;;3.80;97.50;;;;;;4998536;28;20043;-60
2021/03/12 03:42:15;;;;;;;0.77;0.20;;;3.70;97.60;;;;;;5000301;28;20305;-61
2021/03/12 03:44:45;;;;;;;2.58;0.50;;;3.70;97.60;;;;;;4998741;28;20066;-60
2021/03/12 03:47:15;;;;;;;3.75;0.38;;;3.70;97.30;;;;;;4995846;28;20277;-61
2021/03/12 03:49:44;;;;;;;1.10;0.20;;;3.70;97.50;;;;;;4992897;28;20062;-60
2021/03/12 03:52:12;;;;;;;0.88;0.30;;;3.70;97.50;;;;;;4999198;28;20116;-59
2021/03/12 03:54:52;;;;;;;1.58;0.30;;;3.60;97.50;;;;;;4991180;28;20050;-61
2021/03/12 03:57:21;;;;;;;0.32;0.17;;;3.50;97.50;;;;;;4992620;28;21102;-60
2021/03/12 03:59:50;;;;;;;0.63;0.33;;;3.50;97.50;;;;;;4995169;28;20050;-60
2021/03/12 04:02:20;;;;;;;3.58;0.50;;;3.50;97.80;;;;;;4995574;28;21601;-60
2021/03/12 04:04:50;;;;;;;2.08;0.30;;;3.50;97.70;;;;;;4996605;28;20078;-60
2021/03/12 04:07:20;;;;;;;1.75;0.15;;;3.40;97.70;;;;;;4995390;28;21101;-60
2021/03/12 04:09:51;;;;;;;2.13;0.55;;;3.40;97.80;;;;;;4994025;28;20093;-61
2021/03/12 04:12:21;;;;;;;5.80;0.63;;;3.50;97.70;;;;;;4997666;28;20057;-60
2021/03/12 04:14:55;;;;;;;2.15;0.50;;;3.40;97.60;;;;;;5012215;28;20069;-61
2021/03/12 04:17:23;;;;;;;1.17;0.20;;;3.50;97.60;;;;;;4997239;28;20042;-60
2021/03/12 04:19:51;;;;;;;4.38;0.65;;;3.40;97.60;;;;;;4998187;28;20081;-60
2021/03/12 04:22:19;;;;;;;2.35;0.50;;;3.40;97.70;;;;;;4998030;28;20101;-59
2021/03/12 04:24:47;;;;;;;0.43;0.17;;;3.40;97.40;;;;;;4998947;28;20289;-60
2021/03/12 04:27:18;;;;;;;2.40;0.20;;;3.40;97.50;;;;;;5011390;28;20400;-60
2021/03/12 04:29:45;;;;;;;2.70;1.30;;;3.40;97.60;;;;;;4986671;28;20058;-60
2021/03/12 04:32:14;;;;;;;0.60;0.28;;;3.30;97.60;;;;;;4986608;28;20356;-60
2021/03/12 04:34:44;;;;;;;0.55;0.30;;;3.20;97.90;;;;;;4982935;28;20063;-61
2021/03/12 04:37:13;;;;;;;0.98;0.20;;;3.20;98.10;;;;;;4979422;28;20054;-61
2021/03/12 04:39:41;;;;;;;4.13;0.32;;;3.10;97.90;;;;;;4976024;28;20095;-61
2021/03/12 04:42:12;;;;;;;1.05;0.40;;;3.20;98.00;;;;;;4980862;28;20148;-60
2021/03/12 04:44:40;;;;;;;0.65;0.20;;;3.20;97.80;;;;;;4975453;28;20058;-60
2021/03/12 04:47:08;;;;;;;1.58;0.13;;;3.20;98.00;;;;;;4983911;28;20050;-61
2021/03/12 04:49:36;;;;;;;2.97;0.20;;;3.20;98.00;;;;;;4979975;28;20047;-61
2021/03/12 04:52:07;;;;;;;0.10;0.10;;;3.20;98.20;;;;;;4973895;28;20078;-60
2021/03/12 04:54:34;;;;;;;1.40;0.65;;;3.20;97.80;;;;;;4973975;28;20065;-60
2021/03/12 04:57:05;;;;;;;1.13;0.28;;;3.30;97.90;;;;;;4977964;28;20046;-59
2021/03/12 04:59:35;;;;;;;1.23;0.30;;;3.30;98.00;;;;;;4961146;28;20055;-59
2021/03/12 05:02:05;;;;;;;0.88;0.30;;;3.40;97.70;;;;;;4978730;28;20055;-59
2021/03/12 05:04:32;;;;;;;0.20;0.20;;;3.40;98.00;;;;;;4966436;28;20078;-60
2021/03/12 05:07:03;;;;;;;0.85;0.32;;;3.50;97.80;;;;;;4967464;28;20058;-60
2021/03/12 05:09:54;;;;;;;0.70;0.30;;;3.60;97.70;;;;;;4966844;28;20113;-61
2021/03/12 05:12:24;;;;;;;;;;;3.70;97.40;;;;;;4967707;28;20077;-61
2021/03/12 05:14:52;;;;;;;1.95;0.73;;;3.80;97.40;;;;;;4983995;28;20170;-60
2021/03/12 05:17:21;;;;;;;0.38;0.20;;;3.80;97.60;;;;;;4977265;28;20057;-60
2021/03/12 05:19:48;;;;;;;0.50;0.10;;;3.80;97.70;;;;;;4987227;28;20050;-60
2021/03/12 05:22:16;;;;;;;1.10;0.30;;;3.90;97.90;;;;;;4979081;28;22237;-60
2021/03/12 05:24:43;;;;;;;6.93;1.08;;;3.90;97.70;;;;;;4987673;28;20076;-60
2021/03/12 05:27:12;;;;;;;2.08;0.47;;;3.90;97.60;;;;;;4984841;28;20061;-61
2021/03/12 05:29:45;;;;;;;2.72;0.30;;;4.00;97.70;;;;;;4987358;28;20046;-61
2021/03/12 05:32:13;;;;;;;0.40;0.17;;;4.10;97.70;;;;;;4984572;28;20424;-60
2021/03/12 05:34:43;;;;;;;0.77;0.50;;;4.20;97.70;;;;;;4984851;28;20069;-60
2021/03/12 05:37:14;;;;;;;0.57;0.30;;;4.20;97.10;;;;;;4988159;28;20289;-60
2021/03/12 05:39:42;;;;;;;0.95;0.30;;;4.20;96.20;;;;;;4985164;28;20369;-61
2021/03/12 05:42:14;;;;;;;1.27;0.30;;;4.20;96.30;;;;;;4988351;28;20061;-60
2021/03/12 05:44:46;;;;;;;4.10;0.85;;;4.20;97.00;;;;;;4983853;28;20050;-61
2021/03/12 05:47:13;;;;;;;3.05;0.57;;;4.20;96.30;;;;;;4985345;28;20050;-61
2021/03/12 05:49:43;;;;;;;2.85;0.65;;;4.30;95.60;;;;;;4989239;28;20054;-61
2021/03/12 05:52:11;;;;;;;2.00;0.82;;;4.40;95.00;;;;;;4988744;28;20551;-61
2021/03/12 05:54:40;;;;;;;2.60;0.40;;;4.40;94.80;;;;;;4990828;28;20062;-61
2021/03/12 05:57:10;;;;;;;1.27;0.30;;;4.40;94.80;;;;;;4987683;28;20050;-60
2021/03/12 05:59:39;;;;;;;1.08;0.45;;;4.50;94.70;;;;;;4989826;28;20082;-60
2021/03/12 06:02:07;;;;;;;4.18;0.30;;;4.50;92.60;;;;;;4990160;28;20114;-60
2021/03/12 06:04:34;;;;;;;3.67;0.68;;;4.50;93.80;;;;;;5003940;28;20353;-60
2021/03/12 06:07:13;;;;;;;3.33;0.43;;;4.50;91.90;;;;;;4991302;28;20445;-60
2021/03/12 06:09:41;;;;;;;2.70;0.80;;;4.60;92.20;;;;;;4992141;28;20751;-60
2021/03/12 06:12:10;;;;;;;7.65;0.70;;;4.60;91.10;;;;;;4987524;28;20133;-60
2021/03/12 06:14:51;;;;;;;1.23;0.38;;;4.70;90.10;;;;;;4990949;28;20340;-61
2021/03/12 06:17:45;;;;;;;1.33;0.43;;;4.70;90.10;;;;;;4992369;28;20960;-60
2021/03/12 06:20:19;;;;;;;0.82;0.43;;;4.70;88.30;;;;;;5008794;28;20686;-60
2021/03/12 06:22:48;;;;;;;6.33;0.47;;;4.80;88.80;;;;;;4992971;28;20073;-60
2021/03/12 06:25:18;;;;;;;1.58;0.30;;;4.80;88.30;;;;;;4992014;28;20407;-60
2021/03/12 06:28:18;;;;;;;2.05;0.52;;;4.90;88.90;;;;;;4990644;28;20100;-60
2021/03/12 06:31:27;;;;;;;1.45;0.40;;;4.90;86.60;;;;;;5009097;28;20041;-59
2021/03/12 06:34:33;;;;;;;6.35;0.98;;;4.90;88.50;;;;;;5012709;28;22286;-60
2021/03/12 06:37:28;;;;;;;1.92;0.43;;;5.00;86.30;;;;;;4989731;28;20398;-60
2021/03/12 06:40:33;;;;;;;5.78;0.68;;;5.00;86.30;;;;;;4975841;28;20391;-60
2021/03/12 06:43:20;;;;;;;2.92;0.90;;;5.10;87.70;;;;;;4992775;28;20361;-60
2021/03/12 06:46:06;;;;;;;2.88;1.17;;;5.10;88.50;;;;;;4988788;28;20057;-60
2021/03/12 06:48:46;;;;;;;3.22;0.50;;;5.20;87.60;;;;;;5005865;28;20105;-60
2021/03/12 06:51:26;;;;;;;2.15;0.52;;;5.10;89.00;;;;;;4990491;28;20249;-60
2021/03/12 06:54:06;;;;;;;3.85;0.40;;;5.20;89.40;;;;;;4990688;28;20165;-60
2021/03/12 06:56:37;;;;;;;;;;;5.20;88.20;;;;;;4991442;28;20066;-60
2021/03/12 06:59:12;;;;;;;8.77;1.15;;;5.30;86.50;;;;;;4997066;28;20274;-61
2021/03/12 07:02:00;;;;;;;4.93;1.08;;;5.30;87.10;;;;;;4968870;28;20046;-59
2021/03/12 07:04:35;;;;;;;3.38;0.70;;;5.30;86.00;;;;;;4966400;28;20050;-61
2021/03/12 07:07:34;;;;;;;4.10;0.68;;;5.40;85.20;;;;;;4979194;28;20527;-59
2021/03/12 07:10:09;;;;;;;2.55;0.65;;;5.40;85.50;;;;;;4987189;28;20047;-60
2021/03/12 07:12:53;;;;;;;3.03;1.05;;;5.50;84.20;;;;;;4985093;28;20113;-59
2021/03/12 07:15:27;;;;;;;7.03;0.52;;;5.50;84.70;;;;;;4987132;28;20058;-59
2021/03/12 07:18:24;;;;;;;2.03;0.50;;;5.60;84.20;;;;;;4971787;28;20575;-60
2021/03/12 07:20:56;;;;;;;3.47;1.00;;;5.60;83.90;;;;;;4975903;28;20066;-60
2021/03/12 07:23:27;;;;;;;3.73;0.57;;;5.70;86.00;;;;;;4984305;28;20054;-59
2021/03/12 07:25:56;;;;;;;;;;;5.70;82.90;;;;;;5006176;28;20219;-60
2021/03/12 07:28:27;;;;;;;6.88;0.63;;;5.70;84.50;;;;;;4988726;28;19960;-60
2021/03/12 07:31:32;;;;;;;2.08;0.65;;;5.80;82.50;;;;;;4987778;28;20617;-60
2021/03/12 07:34:03;;;;;;;1.80;0.43;;;5.80;83.40;;;;;;4989361;28;20374;-60
2021/03/12 07:36:42;;;;;;;5.18;0.90;;;5.80;83.80;;;;;;4975322;28;20066;-60
2021/03/12 07:39:12;;;;;;;4.82;2.30;;;5.80;84.10;;;;;;4985989;28;20826;-60
2021/03/12 07:41:40;;;;;;;3.90;0.60;;;5.90;84.60;;;;;;4978805;28;20242;-60
2021/03/12 07:44:24;;;;;;;2.50;0.70;;;5.90;83.80;;;;;;4988830;28;20673;-59
2021/03/12 07:47:12;;;;;;;1.67;0.43;;;6.00;84.30;;;;;;4999662;28;20098;-60
2021/03/12 07:49:43;;;;;;;3.03;0.35;;;6.10;82.30;;;;;;5006258;28;20242;-60
2021/03/12 07:52:15;;;;;;;7.25;2.03;;;6.20;81.70;;;;;;4990766;28;20434;-60
2021/03/12 07:54:49;;;;;;;2.47;0.47;;;6.30;81.00;;;;;;4990781;28;20081;-59
2021/03/12 07:57:40;;;;;;;4.45;0.80;;;6.30;80.60;;;;;;4990141;28;20399;-60
2021/03/12 08:00:52;;;;;;;4.47;1.08;;;6.30;79.50;;;;;;4988842;28;20263;-60
2021/03/12 08:03:29;;;;;;;1.98;0.65;;;6.30;79.20;;;;;;4985487;28;21052;-60
2021/03/12 08:06:29;;;;;;;4.13;0.75;;;6.40;80.20;;;;;;4988350;28;21050;-60
2021/03/12 08:09:33;;;;;;;5.07;0.85;;;6.30;79.00;;;;;;4992346;28;20054;-60
2021/03/12 08:12:29;;;;;;;2.22;0.77;;;6.40;79.80;;;;;;4991426;28;20160;-60
2021/03/12 08:15:15;;;;;;;3.30;0.90;;;6.40;79.70;;;;;;5005592;28;20092;-60
2021/03/12 08:17:42;;;;;;;3.35;0.65;;;6.50;78.00;;;;;;4992288;28;20068;-59
2021/03/12 08:20:35;;;;;;;8.15;2.28;;;6.60;78.40;;;;;;4988328;28;20058;-60
2021/03/12 08:23:14;;;;;;;3.53;1.25;;;6.70;77.60;;;;;;5004247;28;20065;-60
2021/03/12 08:25:47;;;;;;;5.05;0.93;;;6.70;78.30;;;;;;4985146;28;20408;-60
2021/03/12 08:28:41;;;;;;;6.15;1.20;;;6.80;77.70;;;;;;4990665;28;20508;-60
2021/03/12 08:31:14;;;;;;;5.15;1.58;;;6.70;77.30;;;;;;4991039;28;20327;-59
2021/03/12 08:33:47;;;;;;;2.25;1.15;;;6.70;76.90;;;;;;4992065;28;20050;-60
2021/03/12 08:36:37;;;;;;;3.22;0.70;;;6.70;77.10;;;;;;4987265;28;20197;-60
2021/03/12 08:39:29;;;;;;;4.30;1.00;;;6.70;77.10;;;;;;4987653;28;20992;-59
2021/03/12 08:42:17;;;;;;;2.35;0.85;;;6.80;76.80;;;;;;4989155;28;20450;-60
2021/03/12 08:45:07;;;;;;;6.68;1.17;;;6.70;75.70;;;;;;4977708;28;20046;-60
2021/03/12 08:48:04;;;;;;;2.38;0.70;;;6.80;75.60;;;;;;4977352;28;20058;-60
2021/03/12 08:50:36;;;;;;;3.47;0.80;;;6.90;75.90;;;;;;4974847;28;20051;-60
2021/03/12 08:53:14;;;;;;;1.17;0.70;;;7.00;74.80;;;;;;4969902;28;20054;-60
2021/03/12 08:55:49;;;;;;;4.78;1.02;;;7.10;74.10;;;;;;4974156;28;20062;-60
2021/03/12 08:58:22;;;;;;;1.50;0.50;;;7.10;73.40;;;;;;4987678;28;20405;-60
2021/03/12 09:00:57;;;;;;;1.55;0.55;;;7.20;73.20;;;;;;4988999;28;20061;-58
2021/03/12 09:03:52;;;;;;;4.07;0.68;;;7.60;73.40;;;;;;4983432;28;20054;-59
2021/03/12 09:06:28;;;;;;;2.15;0.60;;;7.80;71.10;;;;;;5004569;28;21232;-59
2021/03/12 09:09:10;;;;;;;1.13;0.25;;;7.80;70.10;;;;;;4985495;28;20160;-59
2021/03/12 09:11:56;;;;;;;6.13;1.33;;;7.80;69.80;;;;;;4972797;28;20054;-59
2021/03/12 09:14:39;;;;;;;3.95;1.88;;;7.80;70.00;;;;;;4970884;28;20207;-59
2021/03/12 09:17:06;;;;;;;5.32;0.70;;;8.00;68.10;;;;;;4970371;28;20056;-60
2021/03/12 09:19:35;;;;;;;2.47;0.85;;;7.90;67.80;;;;;;4990107;28;20070;-61
2021/03/12 09:22:09;;;;;;;7.22;0.63;;;8.00;68.50;;;;;;4992932;28;20096;-60
2021/03/12 09:24:52;;;;;;;4.85;0.57;;;8.10;67.70;;;;;;4989238;28;20061;-59
2021/03/12 09:27:21;;;;;;;0.65;0.43;;;8.20;66.90;;;;;;4990644;28;20218;-59
2021/03/12 09:30:00;;;;;;;2.38;0.70;;;8.20;68.00;;;;;;4992077;28;20058;-59
2021/03/12 09:32:39;;;;;;;2.17;0.57;;;8.20;66.90;;;;;;4994401;28;20052;-59
2021/03/12 09:35:18;;;;;;;1.97;0.63;;;8.40;66.50;;;;;;4989506;28;20408;-59
2021/03/12 09:37:48;;;;;;;6.47;1.02;;;8.60;64.80;;;;;;5006371;28;20334;-59
2021/03/12 09:40:37;;;;;;;4.47;0.93;;;8.70;64.90;;;;;;4991242;28;20085;-60
2021/03/12 09:43:13;;;;;;;5.68;0.98;;;8.60;65.80;;;;;;4994288;28;20050;-60
2021/03/12 09:45:52;;;;;;;3.10;0.85;;;8.80;64.70;;;;;;4993850;28;20058;-59
2021/03/12 09:48:44;;;;;;;1.27;0.55;;;9.10;64.00;;;;;;4996119;28;20057;-60
2021/03/12 09:51:24;;;;;;;2.88;0.68;;;9.20;63.10;;;;;;4991902;28;20055;-59
2021/03/12 09:53:52;;;;;;;3.65;0.68;;;9.10;62.00;;;;;;5008613;28;20121;-59
2021/03/12 09:56:25;;;;;;;3.53;0.82;;;9.10;62.70;;;;;;4986732;28;20280;-60
2021/03/12 09:59:02;;;;;;;3.72;0.68;;;9.10;61.60;;;;;;4993688;28;20062;-59
2021/03/12 10:01:48;;;;;;;5.43;0.60;;;9.10;62.90;;;;;;4997340;28;20281;-59
2021/03/12 10:04:47;;;;;;;4.00;0.50;;;9.00;61.60;;;;;;4994491;28;20642;-59
2021/03/12 10:07:39;;;;;;;4.45;0.45;;;9.20;61.50;;;;;;4993729;28;21086;-59
2021/03/12 10:10:26;;;;;;;1.48;0.50;;;9.30;62.30;;;;;;4993005;28;20065;-60
2021/03/12 10:12:55;;;;;;;5.80;1.20;;;9.70;59.60;;;;;;5005765;28;20698;-59
2021/03/12 10:15:24;;;;;;;6.35;0.70;;;9.80;59.70;;;;;;4997403;28;20060;-59
2021/03/12 10:18:19;;;;;;;3.30;0.57;;;10.20;58.90;;;;;;4989478;28;20050;-59
2021/03/12 10:20:46;;;;;;;4.95;1.05;;;9.90;57.90;;;;;;4992216;28;20064;-59
2021/03/12 10:23:14;;;;;;;1.95;0.52;;;9.80;59.10;;;;;;4995775;28;20072;-59
2021/03/12 10:25:44;;;;;;;4.82;1.00;;;10.00;57.60;;;;;;4991923;28;20125;-60
2021/03/12 10:28:12;;;;;;;;;;;9.90;57.80;;;;;;4992794;28;20046;-59
2021/03/12 10:30:41;;;;;;;2.70;0.82;;;10.20;57.40;;;;;;4993299;28;19956;-59
2021/03/12 10:33:10;;;;;;;3.72;0.52;;;10.40;57.30;;;;;;4992910;28;20069;-60
2021/03/12 10:35:42;;;;;;;8.32;1.45;;;10.90;56.40;;;;;;4990179;28;20092;-59
2021/03/12 10:38:19;;;;;;;6.28;1.00;;;10.50;55.10;;;;;;4991169;28;20300;-60
2021/03/12 10:40:48;;;;;;;5.88;0.77;;;10.20;56.60;;;;;;4990148;28;20057;-59
2021/03/12 10:43:17;;;;;;;3.42;0.68;;;10.00;56.60;;;;;;4989899;28;21252;-59
2021/03/12 10:45:47;;;;;;;5.90;0.60;;;10.40;55.90;;;;;;4994265;28;20050;-60
2021/03/12 10:48:15;;;;;;;1.55;0.43;;;9.90;56.90;;;;;;4991082;28;20101;-59
2021/03/12 10:50:49;;;;;;;2.15;0.75;;;9.60;57.90;;;;;;4992001;28;20141;-59
2021/03/12 10:53:16;;;;;;;4.47;0.93;;;9.80;56.40;;;;;;5005282;28;20554;-59
2021/03/12 10:55:46;;;;;;;4.18;0.73;;;9.70;57.70;;;;;;4996979;28;20138;-60
2021/03/12 10:58:24;;;;;;;6.22;0.73;;;9.50;57.60;;;;;;4997282;28;20060;-60
2021/03/12 11:01:09;;;;;;;4.43;0.60;;;9.70;57.40;;;;;;4997703;28;20046;-60
2021/03/12 11:03:37;;;;;;;1.17;0.30;;;9.90;56.00;;;;;;5001928;28;20062;-60
2021/03/12 11:06:06;;;;;;;3.25;0.85;;;9.70;56.30;;;;;;4999723;28;20073;-60
2021/03/12 11:08:34;;;;;;;1.73;0.60;;;11.10;53.10;;;;;;5001557;28;20050;-60
2021/03/12 11:11:05;;;;;;;2.65;0.60;;;10.40;53.70;;;;;;4999636;28;20113;-60
2021/03/12 11:13:32;;;;;;;7.47;1.30;;;10.10;54.00;;;;;;5003871;28;20054;-60
2021/03/12 11:15:59;;;;;;;1.52;0.60;;;11.10;51.00;;;;;;4998449;28;20495;-59
2021/03/12 11:18:29;;;;;;;4.90;0.65;;;11.80;49.40;;;;;;4997985;28;20069;-60
2021/03/12 11:20:56;;;;;;;2.45;1.08;;;11.30;51.30;;;;;;5000097;28;20349;-60
2021/03/12 11:23:24;;;;;;;1.40;0.32;;;10.80;50.70;;;;;;5000513;28;20054;-59
2021/03/12 11:25:51;;;;;;;4.80;0.88;;;10.70;51.50;;;;;;5004530;28;20372;-59
2021/03/12 11:28:18;;;;;;;1.52;0.40;;;10.60;51.40;;;;;;5001660;28;20057;-59
2021/03/12 11:30:45;;;;;;;1.95;0.60;;;10.60;52.50;;;;;;4995966;28;20294;-60
2021/03/12 11:33:12;;;;;;;3.78;0.38;;;10.70;51.70;;;;;;4998026;28;20073;-59
2021/03/12 11:35:39;;;;;;;4.50;0.55;;;10.10;53.40;;;;;;4998726;28;20077;-59
2021/03/12 11:38:06;;;;;;;2.45;0.50;;;9.90;54.20;;;;;;5001022;28;20173;-60
2021/03/12 11:40:34;;;;;;;1.30;0.43;;;9.70;52.90;;;;;;4997012;28;20054;-59
2021/03/12 11:43:02;;;;;;;1.50;0.32;;;9.70;52.50;;;;;;4999396;28;20077;-59
2021/03/12 11:45:33;;;;;;;5.03;0.60;;;9.40;53.10;;;;;;4996813;28;20050;-59
2021/03/12 11:48:02;;;;;;;5.53;1.00;;;9.60;52.90;;;;;;4996273;28;20105;-59
2021/03/12 11:50:31;;;;;;;8.25;0.75;;;9.50;53.40;;;;;;4999153;28;20050;-59
2021/03/12 11:52:58;;;;;;;4.00;0.60;;;9.60;52.70;;;;;;5000393;28;20043;-59
2021/03/12 11:55:25;;;;;;;6.05;0.70;;;9.80;53.90;;;;;;5002757;28;20249;-59
2021/03/12 11:57:53;;;;;;;5.82;0.85;;;9.80;52.90;;;;;;5001680;28;20046;-59
2021/03/12 12:00:20;;;;;;;2.10;0.45;;;9.70;53.20;;;;;;4999195;28;20290;-60
2021/03/12 12:02:50;;;;;;;0.95;0.40;;;9.80;52.40;;;;;;4996601;28;20080;-59
2021/03/12 12:05:17;;;;;;;0.60;0.30;;;9.80;52.30;;;;;;4995872;28;20327;-59
2021/03/12 12:07:45;;;;;;;4.15;0.90;;;9.90;52.00;;;;;;4998208;28;20054;-60
2021/03/12 12:10:13;;;;;;;4.13;0.70;;;10.00;51.80;;;;;;4997308;28;20053;-60
2021/03/12 12:12:45;;;;;;;1.67;0.55;;;10.20;50.90;;;;;;4997342;28;20042;-60
2021/03/12 12:15:16;;;;;;;4.38;0.93;;;10.80;50.00;;;;;;4995963;28;20054;-60
2021/03/12 12:17:43;;;;;;;2.55;0.52;;;11.20;48.30;;;;;;4997028;28;20066;-60
2021/03/12 12:20:12;;;;;;;4.63;0.68;;;11.00;48.60;;;;;;5001875;28;20229;-60
2021/03/12 12:22:39;;;;;;;5.03;0.88;;;10.50;49.10;;;;;;4999915;28;20300;-60
2021/03/12 12:25:07;;;;;;;1.23;0.45;;;11.00;48.70;;;;;;4999748;28;20333;-60
2021/03/12 12:27:34;;;;;;;3.13;0.30;;;11.90;46.50;;;;;;5000213;28;20054;-60
2021/03/12 12:30:02;;;;;;;2.70;0.65;;;12.80;43.00;;;;;;4999008;28;20046;-60
2021/03/12 12:32:30;;;;;;;3.47;1.00;;;13.50;42.00;;;;;;4994633;28;20051;-60
2021/03/12 12:35:11;;;;;;;2.65;0.38;;;12.60;43.10;;;;;;4992108;28;20046;-59
2021/03/12 12:37:59;;;;;;;6.85;0.55;;;12.20;43.00;;;;;;4994730;28;20045;-60
2021/03/12 12:40:26;;;;;;;1.95;0.50;;;12.50;43.60;;;;;;4994922;28;20132;-60
2021/03/12 12:42:53;;;;;;;3.30;0.60;;;13.60;40.90;;;;;;4991453;28;20073;-59
2021/03/12 12:45:19;;;;;;;2.88;0.45;;;12.40;43.20;;;;;;4994150;28;20050;-59
2021/03/12 12:47:47;;;;;;;1.60;0.40;;;12.40;43.60;;;;;;4993822;28;20154;-60
2021/03/12 12:50:15;;;;;;;2.25;0.28;;;12.50;42.10;;;;;;4994082;28;20860;-60
2021/03/12 12:52:43;;;;;;;3.65;0.75;;;12.60;42.90;;;;;;4995462;28;20054;-60
2021/03/12 12:55:11;;;;;;;3.80;0.82;;;12.40;44.50;;;;;;4993906;28;20061;-60
2021/03/12 12:57:38;;;;;;;7.32;0.70;;;12.10;45.40;;;;;;4992119;28;20357;-60
2021/03/12 13:00:07;;;;;;;4.13;0.80;;;11.70;45.40;;;;;;4992721;28;20225;-60
2021/03/12 13:02:34;;;;;;;3.63;0.55;;;11.20;47.30;;;;;;4996194;28;20136;-62
2021/03/12 13:05:05;;;;;;;2.00;0.80;;;10.60;49.40;;;;;;4995188;28;20069;-61
2021/03/12 13:07:32;;;;;;;4.22;1.20;;;10.80;49.70;;;;;;4994837;28;20137;-60
2021/03/12 13:09:59;;;;;;;3.58;0.57;;;10.50;50.40;;;;;;4994380;28;20113;-60
2021/03/12 13:12:27;;;;;;;5.18;0.63;;;10.20;51.90;;;;;;4994920;28;20341;-60
2021/03/12 13:14:54;;;;;;;1.45;0.50;;;10.60;52.40;;;;;;4994032;28;20094;-59
2021/03/12 13:17:23;;;;;;;2.38;0.65;;;11.80;48.40;;;;;;5001959;28;20114;-59
2021/03/12 13:19:53;;;;;;;2.42;0.43;;;11.60;48.30;;;;;;4996245;28;20069;-60
2021/03/12 13:22:21;;;;;;;1.55;0.40;;;11.30;49.60;;;;;;4996220;28;20053;-60
2021/03/12 13:24:48;;;;;;;2.15;0.43;;;10.70;51.50;;;;;;4997717;28;20046;-59
2021/03/12 13:27:15;;;;;;;1.75;0.45;;;10.50;53.40;;;;;;4994810;28;20333;-59
2021/03/12 13:29:42;;;;;;;3.58;0.38;;;12.60;46.60;;;;;;4999978;28;20102;-59
2021/03/12 13:32:09;;;;;;;2.28;0.40;;;13.70;43.10;;;;;;5000574;28;20553;-60